Time;durP1;ratioP1;P1;durP2;ratioP2;P2;SDS_P1;SDS_P2;PMS_P1;PMS_P2;Temp;Humidity;BMP_temperature;BMP_pressure;BME280_temperature;BME280_humidity;BME280_pressure;Samples;Min_cycle;Max_cycle;Signal;HPM_P1;HPM_P2
2022/07/12 00:00:55;;;;;;;;;;;25.10;38.60;;;;;;1585462;74;715;-72
2022/07/12 00:02:57;;;;;;;;;;;25.20;38.60;;;;;;1574437;74;1439;-70
2022/07/12 00:04:59;;;;;;;;;;;25.10;38.60;;;;;;1581461;74;774;-73
2022/07/12 00:07:00;;;;;;;;;;;25.10;38.50;;;;;;1580277;74;1126;-71
2022/07/12 00:09:02;;;;;;;;;;;25.10;38.60;;;;;;1578482;74;792;-73
2022/07/12 00:11:07;;;;;;;;;;;25.10;38.60;;;;;;1568955;74;1939;-70
2022/07/12 00:13:10;;;;;;;;;;;25.10;38.60;;;;;;1582320;74;826;-71
2022/07/12 00:15:12;;;;;;;;;;;25.20;38.60;;;;;;1578966;74;714;-72
2022/07/12 00:17:14;;;;;;;;;;;25.20;38.50;;;;;;1580873;74;1243;-71
2022/07/12 00:19:16;;;;;;;;;;;25.10;38.40;;;;;;1572219;74;699;-70
2022/07/12 00:21:18;;;;;;;;;;;25.20;38.50;;;;;;1581533;74;642;-69
2022/07/12 00:23:20;;;;;;;;;;;25.10;38.50;;;;;;1593505;74;770;-68
2022/07/12 00:25:22;;;;;;;;;;;25.20;38.40;;;;;;1586895;74;934;-72
2022/07/12 00:27:23;;;;;;;;;;;25.20;38.50;;;;;;1569280;74;1156;-69
2022/07/12 00:29:25;;;;;;;;;;;25.20;38.50;;;;;;1584758;74;727;-70
2022/07/12 00:31:27;;;;;;;;;;;25.20;38.50;;;;;;1583347;74;1942;-69
2022/07/12 00:33:29;;;;;;;;;;;25.10;38.40;;;;;;1578859;74;779;-70
2022/07/12 00:35:31;;;;;;;;;;;25.20;38.40;;;;;;1580378;74;737;-69
2022/07/12 00:37:33;;;;;;;;;;;25.10;38.30;;;;;;1584566;74;1146;-71
2022/07/12 00:39:35;;;;;;;;;;;25.10;38.40;;;;;;1578450;74;735;-70
2022/07/12 00:41:37;;;;;;;;;;;25.10;38.40;;;;;;1578523;74;720;-71
2022/07/12 00:43:39;;;;;;;;;;;25.10;38.40;;;;;;1575577;74;816;-71
2022/07/12 00:45:41;;;;;;;;;;;25.10;38.40;;;;;;1578001;74;741;-69
2022/07/12 00:47:44;;;;;;;;;;;25.10;38.40;;;;;;1572106;74;1148;-67
2022/07/12 00:49:46;;;;;;;;;;;25.10;38.40;;;;;;1583822;74;927;-70
2022/07/12 00:51:48;;;;;;;;;;;25.10;38.30;;;;;;1583949;74;1919;-70
2022/07/12 00:53:51;;;;;;;;;;;25.10;38.40;;;;;;1580361;74;758;-70
2022/07/12 00:55:53;;;;;;;;;;;25.10;38.30;;;;;;1582476;74;791;-70
2022/07/12 00:57:55;;;;;;;;;;;25.10;38.30;;;;;;1563856;74;1190;-71
2022/07/12 00:59:57;;;;;;;;;;;25.20;38.30;;;;;;1579740;74;1466;-70
2022/07/12 01:01:59;;;;;;;;;;;25.10;38.30;;;;;;1589773;74;766;-69
2022/07/12 01:04:01;;;;;;;;;;;25.10;38.40;;;;;;1578352;74;776;-71
2022/07/12 01:06:03;;;;;;;;;;;25.10;38.20;;;;;;1569930;74;852;-71
2022/07/12 01:08:05;;;;;;;;;;;25.10;38.30;;;;;;1581731;74;1090;-68
2022/07/12 01:10:07;;;;;;;;;;;25.10;38.40;;;;;;1577940;74;763;-69
2022/07/12 01:12:09;;;;;;;;;;;25.20;38.40;;;;;;1582504;74;1941;-69
2022/07/12 01:14:11;;;;;;;;;;;25.20;38.40;;;;;;1582655;74;832;-70
2022/07/12 01:16:14;;;;;;;;;;;25.10;38.30;;;;;;1583702;74;769;-70
2022/07/12 01:18:16;;;;;;;;;;;25.10;38.40;;;;;;1524878;73;231815;-66
2022/07/12 01:20:18;;;;;;;;;;;25.10;38.30;;;;;;1509587;77;745;-65
2022/07/12 01:22:20;;;;;;;;;;;25.10;38.20;;;;;;1504225;77;776;-65
2022/07/12 01:24:22;;;;;;;;;;;25.10;38.20;;;;;;1517977;77;811;-66
2022/07/12 01:26:23;;;;;;;;;;;25.20;38.00;;;;;;1483771;78;758;-65
2022/07/12 01:28:25;;;;;;;;;;;25.10;38.10;;;;;;1491326;78;1228;-65
2022/07/12 01:30:27;;;;;;;;;;;25.20;38.10;;;;;;1530394;76;1945;-65
2022/07/12 01:32:30;;;;;;;;;;;25.20;38.10;;;;;;1527365;77;669;-65
2022/07/12 01:34:32;;;;;;;;;;;25.10;38.10;;;;;;1530289;77;777;-65
2022/07/12 01:36:34;;;;;;;;;;;25.10;38.10;;;;;;1520757;77;668;-65
2022/07/12 01:38:36;;;;;;;;;;;25.10;38.10;;;;;;1517388;77;1131;-66
2022/07/12 01:40:37;;;;;;;;;;;25.10;38.00;;;;;;1529170;77;726;-65
2022/07/12 01:42:39;;;;;;;;;;;25.10;38.10;;;;;;1538249;77;736;-66
2022/07/12 01:44:41;;;;;;;;;;;25.10;38.00;;;;;;1521597;77;760;-66
2022/07/12 01:46:43;;;;;;;;;;;25.20;38.00;;;;;;1514074;77;773;-66
2022/07/12 01:48:45;;;;;;;;;;;25.10;38.00;;;;;;1527674;77;1095;-66
2022/07/12 01:50:47;;;;;;;;;;;25.10;37.90;;;;;;1507912;77;1949;-66
2022/07/12 01:52:49;;;;;;;;;;;25.10;37.90;;;;;;1530071;77;742;-66
2022/07/12 01:54:51;;;;;;;;;;;25.10;37.90;;;;;;1531508;77;758;-66
2022/07/12 01:56:53;;;;;;;;;;;25.00;37.90;;;;;;1518534;77;1682;-65
2022/07/12 01:58:55;;;;;;;;;;;25.10;37.90;;;;;;1537762;77;783;-64
2022/07/12 02:00:57;;;;;;;;;;;25.10;37.90;;;;;;1518402;77;813;-65
2022/07/12 02:02:59;;;;;;;;;;;25.10;37.80;;;;;;1520853;77;760;-65
2022/07/12 02:05:01;;;;;;;;;;;25.10;37.90;;;;;;1510249;77;774;-65
2022/07/12 02:07:03;;;;;;;;;;;25.10;37.90;;;;;;1508412;77;1133;-65
2022/07/12 02:09:05;;;;;;;;;;;25.10;37.80;;;;;;1511717;77;715;-65
2022/07/12 02:11:07;;;;;;;;;;;25.10;37.90;;;;;;1510465;77;1921;-65
2022/07/12 02:13:09;;;;;;;;;;;25.10;37.80;;;;;;1522618;77;761;-66
2022/07/12 02:15:11;;;;;;;;;;;25.10;37.80;;;;;;1530845;77;770;-65
2022/07/12 02:17:13;;;;;;;;;;;25.10;37.80;;;;;;1525339;77;1133;-66
2022/07/12 02:19:15;;;;;;;;;;;25.10;37.60;;;;;;1516547;77;773;-66
2022/07/12 02:21:17;;;;;;;;;;;25.10;37.60;;;;;;1518179;77;790;-66
2022/07/12 02:23:18;;;;;;;;;;;25.10;37.70;;;;;;1513696;77;725;-65
2022/07/12 02:25:20;;;;;;;;;;;25.10;37.70;;;;;;1515329;77;862;-66
2022/07/12 02:27:22;;;;;;;;;;;25.10;37.60;;;;;;1529909;77;1151;-66
2022/07/12 02:29:24;;;;;;;;;;;25.10;37.70;;;;;;1529079;77;716;-65
2022/07/12 02:31:26;;;;;;;;;;;25.00;37.70;;;;;;1523874;77;1941;-65
2022/07/12 02:33:28;;;;;;;;;;;25.10;37.70;;;;;;1517730;77;731;-65
2022/07/12 02:35:30;;;;;;;;;;;25.00;37.60;;;;;;1510633;77;790;-65
2022/07/12 02:37:32;;;;;;;;;;;25.00;37.70;;;;;;1518408;77;1140;-65
2022/07/12 02:39:34;;;;;;;;;;;25.10;37.70;;;;;;1521022;77;878;-65
2022/07/12 02:41:35;;;;;;;;;;;25.10;37.70;;;;;;1518513;77;726;-65
2022/07/12 02:43:37;;;;;;;;;;;25.00;37.70;;;;;;1528690;77;790;-66
2022/07/12 02:45:39;;;;;;;;;;;25.10;37.70;;;;;;1521707;77;650;-66
2022/07/12 02:47:41;;;;;;;;;;;25.00;37.60;;;;;;1523089;77;1128;-65
2022/07/12 02:49:43;;;;;;;;;;;25.00;37.60;;;;;;1526481;77;843;-65
2022/07/12 02:51:45;;;;;;;;;;;25.10;37.60;;;;;;1514699;77;1947;-65
2022/07/12 02:53:47;;;;;;;;;;;25.00;37.70;;;;;;1518048;77;801;-65
2022/07/12 02:55:49;;;;;;;;;;;25.10;37.80;;;;;;1511643;77;778;-65
2022/07/12 02:57:51;;;;;;;;;;;25.00;37.60;;;;;;1520053;77;1206;-64
2022/07/12 02:59:52;;;;;;;;;;;25.00;37.70;;;;;;1516260;77;799;-65
2022/07/12 03:01:54;;;;;;;;;;;25.00;37.70;;;;;;1509722;77;746;-67
2022/07/12 03:03:57;;;;;;;;;;;25.00;37.70;;;;;;1512043;77;741;-67
2022/07/12 03:05:58;;;;;;;;;;;25.00;37.70;;;;;;1507418;77;811;-66
2022/07/12 03:08:01;;;;;;;;;;;25.00;37.70;;;;;;1510509;77;1158;-67
2022/07/12 03:10:03;;;;;;;;;;;25.00;37.70;;;;;;1512533;77;862;-65
2022/07/12 03:12:07;;;;;;;;;;;25.10;37.60;;;;;;1511402;77;1931;-66
2022/07/12 03:14:08;;;;;;;;;;;25.10;37.60;;;;;;1506100;77;775;-64
2022/07/12 03:16:10;;;;;;;;;;;25.10;37.50;;;;;;1515850;77;750;-65
2022/07/12 03:18:13;;;;;;;;;;;25.00;37.50;;;;;;1497065;77;1133;-65
2022/07/12 03:20:15;;;;;;;;;;;25.00;37.40;;;;;;1500327;77;794;-66
2022/07/12 03:22:17;;;;;;;;;;;25.10;37.50;;;;;;1498875;77;733;-65
2022/07/12 03:24:18;;;;;;;;;;;25.10;37.40;;;;;;1507503;77;726;-64
2022/07/12 03:26:21;;;;;;;;;;;25.10;37.40;;;;;;1502082;77;902;-64
2022/07/12 03:28:25;;;;;;;;;;;25.10;37.30;;;;;;1510721;77;1155;-64
2022/07/12 03:30:27;;;;;;;;;;;25.10;37.40;;;;;;1495459;77;730;-64
2022/07/12 03:32:29;;;;;;;;;;;25.00;37.40;;;;;;1500475;77;1912;-65
2022/07/12 03:34:31;;;;;;;;;;;25.10;37.50;;;;;;1500885;77;881;-65
2022/07/12 03:36:33;;;;;;;;;;;25.00;37.60;;;;;;1495177;77;761;-64
2022/07/12 03:38:36;;;;;;;;;;;25.10;37.60;;;;;;1499499;77;1141;-65
2022/07/12 03:40:38;;;;;;;;;;;25.10;37.60;;;;;;1500287;77;707;-66
2022/07/12 03:42:40;;;;;;;;;;;25.00;37.60;;;;;;1507652;77;727;-65
2022/07/12 03:44:42;;;;;;;;;;;25.00;37.60;;;;;;1495224;77;652;-64
2022/07/12 03:46:44;;;;;;;;;;;25.00;37.60;;;;;;1500723;77;728;-65
2022/07/12 03:48:46;;;;;;;;;;;25.00;37.50;;;;;;1508171;77;1587;-64
2022/07/12 03:50:47;;;;;;;;;;;25.00;37.50;;;;;;1499568;77;781;-64
2022/07/12 03:52:50;;;;;;;;;;;25.00;37.50;;;;;;1497523;77;1942;-64
2022/07/12 03:54:51;;;;;;;;;;;25.00;37.40;;;;;;1503148;77;722;-64
2022/07/12 03:59:13;;;;;;;;;;;25.00;37.60;;;;;;1498414;77;1651;-64
2022/07/12 04:01:15;;;;;;;;;;;25.10;37.40;;;;;;1501287;77;776;-64
2022/07/12 04:03:17;;;;;;;;;;;25.00;37.50;;;;;;1498050;77;763;-64
2022/07/12 04:05:19;;;;;;;;;;;25.00;37.40;;;;;;1498893;77;745;-65
2022/07/12 04:07:21;;;;;;;;;;;25.00;37.30;;;;;;1494612;77;1179;-65
2022/07/12 04:09:23;;;;;;;;;;;25.00;37.30;;;;;;1494988;77;810;-65
2022/07/12 04:11:25;;;;;;;;;;;25.00;37.30;;;;;;1494576;77;1951;-65
2022/07/12 04:13:27;;;;;;;;;;;25.00;37.30;;;;;;1493274;77;675;-64
2022/07/12 04:15:29;;;;;;;;;;;25.00;37.20;;;;;;1500551;77;743;-64
2022/07/12 04:17:31;;;;;;;;;;;25.00;37.30;;;;;;1501087;77;1157;-64
2022/07/12 04:19:33;;;;;;;;;;;25.00;37.20;;;;;;1496224;77;790;-64
2022/07/12 04:21:36;;;;;;;;;;;25.00;37.20;;;;;;1493531;77;825;-65
2022/07/12 04:23:38;;;;;;;;;;;25.00;37.20;;;;;;1492852;77;733;-64
2022/07/12 04:25:40;;;;;;;;;;;25.00;37.30;;;;;;1490153;77;754;-65
2022/07/12 04:27:42;;;;;;;;;;;25.00;37.30;;;;;;1495660;77;1155;-64
2022/07/12 04:29:44;;;;;;;;;;;25.00;37.30;;;;;;1493331;77;760;-65
2022/07/12 04:31:45;;;;;;;;;;;25.00;37.20;;;;;;1492493;77;1948;-65
2022/07/12 04:33:47;;;;;;;;;;;24.90;37.30;;;;;;1491240;77;771;-65
2022/07/12 04:35:49;;;;;;;;;;;25.00;37.30;;;;;;1490869;77;790;-64
2022/07/12 04:37:51;;;;;;;;;;;24.90;37.40;;;;;;1495397;77;1131;-64
2022/07/12 04:39:53;;;;;;;;;;;24.90;37.30;;;;;;1502502;77;735;-65
2022/07/12 04:41:55;;;;;;;;;;;25.00;37.30;;;;;;1488990;77;727;-62
2022/07/12 04:43:57;;;;;;;;;;;25.00;37.50;;;;;;1495781;77;1529;-64
2022/07/12 04:46:10;;;;;;;;;;;24.90;37.50;;;;;;1501625;77;705;-65
2022/07/12 04:48:12;;;;;;;;;;;25.00;37.60;;;;;;1496630;77;1142;-65
2022/07/12 04:50:14;;;;;;;;;;;24.90;37.50;;;;;;1494922;77;812;-65
2022/07/12 04:52:16;;;;;;;;;;;24.90;37.60;;;;;;1500405;77;1946;-64
2022/07/12 04:54:18;;;;;;;;;;;24.90;37.70;;;;;;1493022;77;767;-65
2022/07/12 04:56:20;;;;;;;;;;;24.90;37.70;;;;;;1493215;77;829;-65
2022/07/12 04:58:23;;;;;;;;;;;25.00;37.80;;;;;;1496693;77;1145;-66
2022/07/12 05:00:24;;;;;;;;;;;24.90;37.70;;;;;;1500047;77;730;-63
2022/07/12 05:02:26;;;;;;;;;;;25.00;37.60;;;;;;1510045;77;946;-64
2022/07/12 05:04:28;;;;;;;;;;;25.00;37.60;;;;;;1508427;77;737;-65
2022/07/12 05:06:30;;;;;;;;;;;25.00;37.70;;;;;;1478875;78;1176;-67
2022/07/12 05:08:32;;;;;;;;;;;25.00;37.70;;;;;;1493010;77;1200;-68
2022/07/12 05:10:34;;;;;;;;;;;25.10;37.60;;;;;;1510696;77;724;-66
2022/07/12 05:12:36;;;;;;;;;;;25.00;37.50;;;;;;1511203;77;1925;-66
2022/07/12 05:14:38;;;;;;;;;;;25.00;37.60;;;;;;1510953;77;816;-66
2022/07/12 05:16:40;;;;;;;;;;;25.00;37.50;;;;;;1510452;77;805;-65
2022/07/12 05:18:41;;;;;;;;;;;25.00;37.50;;;;;;1501025;77;1100;-66
2022/07/12 05:20:43;;;;;;;;;;;25.00;37.50;;;;;;1504198;77;787;-66
2022/07/12 05:22:45;;;;;;;;;;;24.90;37.60;;;;;;1514007;77;706;-71
2022/07/12 05:24:47;;;;;;;;;;;24.90;37.80;;;;;;1504290;77;730;-70
2022/07/12 05:26:49;;;;;;;;;;;25.00;37.80;;;;;;1508834;77;684;-70
2022/07/12 05:28:52;;;;;;;;;;;25.00;37.80;;;;;;1502823;77;1169;-68
2022/07/12 05:30:54;;;;;;;;;;;24.90;37.80;;;;;;1511285;77;822;-72
2022/07/12 05:32:55;;;;;;;;;;;25.00;37.80;;;;;;1509365;77;1915;-67
2022/07/12 05:34:57;;;;;;;;;;;25.00;37.80;;;;;;1511257;77;753;-69
2022/07/12 05:36:59;;;;;;;;;;;24.90;37.80;;;;;;1508998;77;1127;-67
2022/07/12 05:39:01;;;;;;;;;;;25.00;37.80;;;;;;1505796;77;706;-67
2022/07/12 05:41:03;;;;;;;;;;;24.90;37.80;;;;;;1512442;77;1581;-65
2022/07/12 05:43:05;;;;;;;;;;;25.00;37.90;;;;;;1507440;77;743;-68
2022/07/12 05:45:08;;;;;;;;;;;24.90;37.90;;;;;;1494832;77;658;-68
2022/07/12 05:47:10;;;;;;;;;;;24.90;38.10;;;;;;1510212;77;1155;-67
2022/07/12 05:49:11;;;;;;;;;;;24.90;38.10;;;;;;1511169;77;670;-67
2022/07/12 05:53:33;;;;;;;;;;;24.90;38.10;;;;;;1511486;77;1922;-67
2022/07/12 05:55:35;;;;;;;;;;;24.80;38.10;;;;;;1510578;77;736;-67
2022/07/12 05:57:37;;;;;;;;;;;24.80;38.20;;;;;;1512693;77;1151;-65
2022/07/12 05:59:39;;;;;;;;;;;24.80;38.20;;;;;;1511709;77;825;-66
2022/07/12 06:01:41;;;;;;;;;;;24.90;38.30;;;;;;1509434;77;648;-66
2022/07/12 06:03:43;;;;;;;;;;;24.80;38.30;;;;;;1492672;77;726;-67
2022/07/12 06:05:45;;;;;;;;;;;24.80;38.30;;;;;;1506019;77;740;-67
2022/07/12 06:07:47;;;;;;;;;;;24.80;38.40;;;;;;1509096;77;1191;-67
2022/07/12 06:09:49;;;;;;;;;;;24.90;38.50;;;;;;1492818;77;759;-70
2022/07/12 06:11:50;;;;;;;;;;;24.80;38.40;;;;;;1510878;77;788;-68
2022/07/12 06:13:53;;;;;;;;;;;24.80;38.50;;;;;;1510004;77;1941;-67
2022/07/12 06:15:59;;;;;;;;;;;24.80;38.50;;;;;;1504784;77;763;-71
2022/07/12 06:17:58;;;;;;;;;;;24.80;38.60;;;;;;1512751;77;1203;-67
2022/07/12 06:20:00;;;;;;;;;;;24.80;38.60;;;;;;1509640;77;805;-68
2022/07/12 06:22:02;;;;;;;;;;;24.90;38.80;;;;;;1504092;77;749;-68
2022/07/12 06:24:04;;;;;;;;;;;24.80;38.70;;;;;;1512389;77;741;-70
2022/07/12 06:26:06;;;;;;;;;;;24.80;38.70;;;;;;1513749;77;820;-69
2022/07/12 06:28:08;;;;;;;;;;;24.80;38.80;;;;;;1522077;77;1159;-69
2022/07/12 06:30:11;;;;;;;;;;;24.90;38.90;;;;;;1509402;77;807;-69
2022/07/12 06:32:13;;;;;;;;;;;24.80;38.90;;;;;;1508196;77;768;-70
2022/07/12 06:34:15;;;;;;;;;;;24.80;38.90;;;;;;1512184;77;1938;-70
2022/07/12 06:36:16;;;;;;;;;;;24.90;39.00;;;;;;1499100;77;1509;-69
2022/07/12 06:38:18;;;;;;;;;;;24.80;38.90;;;;;;1509399;77;1152;-68
2022/07/12 06:40:20;;;;;;;;;;;24.80;39.00;;;;;;1513271;77;851;-65
2022/07/12 06:42:22;;;;;;;;;;;24.90;39.00;;;;;;1511047;77;729;-66
2022/07/12 06:44:24;;;;;;;;;;;24.80;39.00;;;;;;1510780;77;769;-68
2022/07/12 06:46:26;;;;;;;;;;;24.80;39.10;;;;;;1507846;77;792;-69
2022/07/12 06:48:28;;;;;;;;;;;24.90;39.20;;;;;;1510570;77;1283;-67
2022/07/12 06:50:30;;;;;;;;;;;24.90;39.20;;;;;;1510533;77;723;-70
2022/07/12 06:52:32;;;;;;;;;;;24.80;39.10;;;;;;1506077;77;1946;-68
2022/07/12 06:54:34;;;;;;;;;;;24.90;39.20;;;;;;1498572;77;741;-70
2022/07/12 06:56:36;;;;;;;;;;;24.90;39.20;;;;;;1490777;77;793;-71
2022/07/12 06:58:38;;;;;;;;;;;24.90;39.20;;;;;;1497836;77;1105;-71
2022/07/12 07:00:40;;;;;;;;;;;24.90;39.30;;;;;;1496108;77;795;-68
2022/07/12 07:02:42;;;;;;;;;;;24.90;39.30;;;;;;1492258;77;782;-67
2022/07/12 07:04:44;;;;;;;;;;;24.90;39.30;;;;;;1500638;77;709;-68
2022/07/12 07:06:46;;;;;;;;;;;24.80;39.20;;;;;;1500902;77;886;-68
2022/07/12 07:08:48;;;;;;;;;;;24.80;39.30;;;;;;1507446;77;1171;-68
2022/07/12 07:10:50;;;;;;;;;;;24.80;39.30;;;;;;1499619;77;772;-69
2022/07/12 07:12:52;;;;;;;;;;;24.90;39.40;;;;;;1497713;77;1906;-69
2022/07/12 07:14:54;;;;;;;;;;;24.80;39.40;;;;;;1501381;77;808;-69
2022/07/12 07:16:55;;;;;;;;;;;24.80;39.40;;;;;;1497329;77;1157;-69
2022/07/12 07:18:57;;;;;;;;;;;24.90;39.40;;;;;;1555849;73;227248;-57
2022/07/12 07:20:59;;;;;;;;;;;24.80;39.40;;;;;;1599217;73;754;-55
2022/07/12 07:23:01;;;;;;;;;;;24.80;39.40;;;;;;1599024;73;785;-54
2022/07/12 07:25:03;;;;;;;;;;;24.90;39.50;;;;;;1602470;73;741;-55
2022/07/12 07:27:05;;;;;;;;;;;24.80;39.40;;;;;;1588396;73;1186;-55
2022/07/12 07:31:27;;;;;;;;;;;24.80;39.40;;;;;;1574154;73;1606;-55
2022/07/12 07:33:29;;;;;;;;;;;24.90;39.60;;;;;;1587398;73;1939;-56
2022/07/12 07:35:31;;;;;;;;;;;24.80;39.40;;;;;;1577784;73;805;-57
2022/07/12 07:37:33;;;;;;;;;;;24.80;39.40;;;;;;1587293;73;1066;-56
2022/07/12 07:39:35;;;;;;;;;;;24.80;39.50;;;;;;1577915;73;714;-56
2022/07/12 07:41:37;;;;;;;;;;;24.80;39.50;;;;;;1580045;73;783;-57
2022/07/12 07:43:39;;;;;;;;;;;24.80;39.50;;;;;;1571679;73;760;-56
2022/07/12 07:45:41;;;;;;;;;;;24.80;39.50;;;;;;1576901;73;672;-56
2022/07/12 07:47:49;;;;;;;;;;;24.80;39.50;;;;;;1582958;73;1137;-54
2022/07/12 07:49:51;;;;;;;;;;;24.90;39.60;;;;;;1587155;73;758;-55
2022/07/12 07:51:53;;;;;;;;;;;24.90;39.60;;;;;;1587673;73;778;-56
2022/07/12 07:53:55;;;;;;;;;;;24.90;39.50;;;;;;1587131;73;1927;-57
2022/07/12 07:55:57;;;;;;;;;;;24.80;39.40;;;;;;1576773;73;782;-57
2022/07/12 07:58:00;;;;;;;;;;;24.90;39.70;;;;;;1585676;73;1150;-57
2022/07/12 08:00:02;;;;;;;;;;;24.80;39.50;;;;;;1587083;73;709;-54
2022/07/12 08:02:04;;;;;;;;;;;24.90;39.60;;;;;;1588203;73;787;-54
2022/07/12 08:04:06;;;;;;;;;;;24.80;39.40;;;;;;1586052;73;757;-55
2022/07/12 08:06:08;;;;;;;;;;;24.80;39.50;;;;;;1577196;73;795;-56
2022/07/12 08:08:09;;;;;;;;;;;24.90;39.60;;;;;;1586300;73;1116;-57
2022/07/12 08:10:11;;;;;;;;;;;24.90;39.60;;;;;;1574162;73;736;-55
2022/07/12 08:12:13;;;;;;;;;;;24.80;39.50;;;;;;1588591;73;720;-56
2022/07/12 08:14:15;;;;;;;;;;;24.90;39.60;;;;;;1587653;73;1914;-55
2022/07/12 08:16:17;;;;;;;;;;;24.80;39.50;;;;;;1587660;73;777;-57
2022/07/12 08:18:19;;;;;;;;;;;24.90;39.60;;;;;;1589874;73;1141;-56
2022/07/12 08:20:22;;;;;;;;;;;24.80;39.50;;;;;;1588093;73;739;-56
2022/07/12 08:22:23;;;;;;;;;;;24.80;39.40;;;;;;1596768;73;719;-54
2022/07/12 08:24:25;;;;;;;;;;;24.80;39.40;;;;;;1585524;73;710;-56
2022/07/12 08:26:27;;;;;;;;;;;24.80;39.30;;;;;;1581369;73;1096;-57
2022/07/12 08:28:29;;;;;;;;;;;24.80;39.30;;;;;;1587144;73;792;-54
2022/07/12 08:30:31;;;;;;;;;;;24.80;39.20;;;;;;1588889;73;1353;-55
2022/07/12 08:32:33;;;;;;;;;;;24.80;39.20;;;;;;1584552;73;795;-55
2022/07/12 08:34:35;;;;;;;;;;;24.80;39.20;;;;;;1584809;73;1910;-56
2022/07/12 08:36:37;;;;;;;;;;;24.80;39.10;;;;;;1573127;73;1140;-56
2022/07/12 08:38:40;;;;;;;;;;;24.80;39.10;;;;;;1586386;73;783;-55
2022/07/12 08:40:43;;;;;;;;;;;24.80;39.00;;;;;;1578474;73;612;-55
2022/07/12 08:42:47;;;;;;;;;;;24.80;39.10;;;;;;1581538;73;723;-56
2022/07/12 08:44:55;;;;;;;;;;;24.80;39.00;;;;;;1575577;73;1697;-57
2022/07/12 08:46:57;;;;;;;;;;;24.80;39.00;;;;;;1588613;73;1143;-57
2022/07/12 08:49:00;;;;;;;;;;;24.80;38.90;;;;;;1588015;73;729;-55
2022/07/12 08:51:06;;;;;;;;;;;24.80;38.80;;;;;;1581978;73;1688;-54
2022/07/12 08:53:09;;;;;;;;;;;24.80;38.80;;;;;;1585369;73;1938;-55
2022/07/12 08:55:18;;;;;;;;;;;24.80;38.60;;;;;;1583823;73;647;-56
2022/07/12 08:57:30;;;;;;;;;;;24.80;38.60;;;;;;1604663;73;1575;-55
2022/07/12 08:59:32;;;;;;;;;;;24.80;38.50;;;;;;1584327;73;749;-55
2022/07/12 09:01:41;;;;;;;;;;;24.70;38.50;;;;;;1584571;73;702;-55
2022/07/12 09:03:43;;;;;;;;;;;24.80;38.40;;;;;;1581229;73;682;-56
2022/07/12 09:05:54;;;;;;;;;;;24.80;38.30;;;;;;1586717;73;733;-57
2022/07/12 09:08:03;;;;;;;;;;;24.80;38.40;;;;;;1583234;73;1145;-55
2022/07/12 09:10:05;;;;;;;;;;;24.70;38.30;;;;;;1591186;73;758;-55
2022/07/12 09:12:08;;;;;;;;;;;24.70;38.30;;;;;;1579328;73;1508;-56
2022/07/12 09:14:09;;;;;;;;;;;24.70;38.30;;;;;;1583266;73;1953;-55
2022/07/12 09:16:18;;;;;;;;;;;24.70;38.20;;;;;;1593389;73;735;-56
2022/07/12 09:18:25;;;;;;;;;;;24.70;38.10;;;;;;1579954;73;758;-57
2022/07/12 09:20:24;;;;;;;;;;;24.80;38.20;;;;;;1569988;74;1213;-55
2022/07/12 09:22:26;;;;;;;;;;;24.80;38.20;;;;;;1583284;73;722;-57
2022/07/12 09:24:28;;;;;;;;;;;24.70;38.20;;;;;;1584553;73;674;-56
2022/07/12 09:26:35;;;;;;;;;;;24.80;38.20;;;;;;1578098;73;1506;-56
2022/07/12 09:28:34;;;;;;;;;;;24.80;38.20;;;;;;1590587;73;914;-58
2022/07/12 09:30:39;;;;;;;;;;;24.80;38.20;;;;;;1599715;73;759;-57
2022/07/12 09:37:40;;;;;;;;;;;24.70;38.20;;;;;;1583679;73;1634;-58
2022/07/12 09:39:42;;;;;;;;;;;24.70;38.20;;;;;;1583885;73;1530;-57
2022/07/12 09:41:44;;;;;;;;;;;24.80;38.20;;;;;;1582309;73;768;-57
2022/07/12 09:43:46;;;;;;;;;;;24.80;38.30;;;;;;1609752;73;871;-57
2022/07/12 09:45:48;;;;;;;;;;;24.70;38.20;;;;;;1603144;73;728;-57
2022/07/12 09:47:50;;;;;;;;;;;24.70;38.20;;;;;;1581756;73;1061;-57
2022/07/12 09:49:52;;;;;;;;;;;24.70;38.20;;;;;;1592740;73;787;-58
2022/07/12 09:51:55;;;;;;;;;;;24.80;38.30;;;;;;1606540;73;685;-58
2022/07/12 09:53:58;;;;;;;;;;;24.80;38.30;;;;;;1579781;73;1930;-55
2022/07/12 09:56:02;;;;;;;;;;;24.70;38.30;;;;;;1600375;73;766;-57
2022/07/12 09:58:04;;;;;;;;;;;24.70;38.30;;;;;;1588582;73;1123;-57
2022/07/12 10:00:10;;;;;;;;;;;24.70;38.30;;;;;;1565012;73;731;-57
2022/07/12 10:02:15;;;;;;;;;;;24.80;38.40;;;;;;1611929;73;1526;-57
2022/07/12 10:04:14;;;;;;;;;;;24.70;38.30;;;;;;1608724;73;1700;-55
2022/07/12 10:06:23;;;;;;;;;;;24.70;38.30;;;;;;1587729;73;687;-56
2022/07/12 10:08:25;;;;;;;;;;;24.80;38.30;;;;;;1591725;73;1831;-57
2022/07/12 10:10:27;;;;;;;;;;;24.80;38.30;;;;;;1590001;73;730;-57
2022/07/12 10:12:29;;;;;;;;;;;24.70;38.30;;;;;;1585391;73;795;-57
2022/07/12 10:14:31;;;;;;;;;;;24.80;38.30;;;;;;1611338;73;1927;-57
2022/07/12 10:16:34;;;;;;;;;;;24.70;38.40;;;;;;1592884;73;1131;-57
2022/07/12 10:18:36;;;;;;;;;;;24.70;38.30;;;;;;1600567;73;646;-57
2022/07/12 10:20:39;;;;;;;;;;;24.70;38.40;;;;;;1582400;73;781;-57
2022/07/12 10:22:41;;;;;;;;;;;24.70;38.40;;;;;;1572015;73;1770;-57
2022/07/12 10:24:54;;;;;;;;;;;24.80;38.40;;;;;;1586447;73;743;-56
2022/07/12 10:26:57;;;;;;;;;;;24.80;38.40;;;;;;1594587;73;1183;-57
2022/07/12 10:29:07;;;;;;;;;;;24.70;38.40;;;;;;1581282;73;692;-56
2022/07/12 10:31:10;;;;;;;;;;;24.70;38.40;;;;;;1594148;73;2216;-57
2022/07/12 10:33:15;;;;;;;;;;;24.70;38.50;;;;;;1593558;73;751;-56
2022/07/12 10:35:22;;;;;;;;;;;24.80;38.50;;;;;;1575413;73;1895;-56
2022/07/12 10:37:24;;;;;;;;;;;24.70;38.60;;;;;;1579443;73;1792;-57
2022/07/12 10:39:26;;;;;;;;;;;24.70;38.60;;;;;;1577328;73;797;-57
2022/07/12 10:41:28;;;;;;;;;;;24.70;38.60;;;;;;1589446;73;719;-55
2022/07/12 10:45:50;;;;;;;;;;;24.80;38.70;;;;;;1580261;73;1684;-55
2022/07/12 10:47:59;;;;;;;;;;;24.80;38.70;;;;;;1573705;73;1148;-55
2022/07/12 10:50:01;;;;;;;;;;;24.70;38.70;;;;;;1588199;73;1541;-55
2022/07/12 10:52:14;;;;;;;;;;;24.80;38.80;;;;;;1591719;73;871;-56
2022/07/12 10:54:24;;;;;;;;;;;24.80;38.70;;;;;;1588401;73;1910;-57
2022/07/12 10:56:27;;;;;;;;;;;24.70;38.70;;;;;;1601758;73;1096;-57
2022/07/12 10:58:31;;;;;;;;;;;24.80;38.70;;;;;;1589232;73;746;-57
2022/07/12 11:00:33;;;;;;;;;;;24.70;38.70;;;;;;1584145;73;776;-55
2022/07/12 11:02:35;;;;;;;;;;;24.80;38.80;;;;;;1582605;73;798;-57
2022/07/12 11:04:39;;;;;;;;;;;24.80;38.80;;;;;;1579140;73;1555;-57
2022/07/12 11:06:41;;;;;;;;;;;24.80;38.90;;;;;;1600115;73;1664;-57
2022/07/12 11:08:56;;;;;;;;;;;24.80;38.80;;;;;;1572928;73;774;-57
2022/07/12 11:10:58;;;;;;;;;;;24.80;38.70;;;;;;1584569;73;959;-57
2022/07/12 11:13:01;;;;;;;;;;;24.70;38.80;;;;;;1576934;73;765;-57
2022/07/12 11:15:03;;;;;;;;;;;24.80;38.80;;;;;;1574208;73;1915;-56
2022/07/12 11:17:05;;;;;;;;;;;24.80;38.90;;;;;;1578834;73;1186;-56
2022/07/12 11:19:07;;;;;;;;;;;24.70;38.80;;;;;;1592263;73;1549;-57
2022/07/12 11:21:09;;;;;;;;;;;24.80;38.90;;;;;;1584364;73;789;-55
2022/07/12 11:23:11;;;;;;;;;;;24.80;38.90;;;;;;1581305;73;702;-57
2022/07/12 11:25:13;;;;;;;;;;;24.80;38.90;;;;;;1595417;73;851;-55
2022/07/12 11:27:15;;;;;;;;;;;24.70;38.90;;;;;;1590329;73;1150;-54
2022/07/12 11:29:17;;;;;;;;;;;24.80;38.80;;;;;;1597553;73;700;-55
2022/07/12 11:31:21;;;;;;;;;;;24.70;38.90;;;;;;1571241;73;858;-56
2022/07/12 11:33:24;;;;;;;;;;;24.70;38.80;;;;;;1581742;73;1673;-56
2022/07/12 11:35:27;;;;;;;;;;;24.80;38.90;;;;;;1581369;73;2166;-57
2022/07/12 11:37:30;;;;;;;;;;;24.80;38.90;;;;;;1572024;73;1152;-55
2022/07/12 11:39:33;;;;;;;;;;;24.80;38.80;;;;;;1586325;73;725;-57
2022/07/12 11:41:34;;;;;;;;;;;24.80;38.80;;;;;;1579918;73;737;-57
2022/07/12 11:43:37;;;;;;;;;;;24.80;38.80;;;;;;1592014;73;764;-57
2022/07/12 11:45:38;;;;;;;;;;;24.80;38.80;;;;;;1601542;73;1539;-57
2022/07/12 11:47:40;;;;;;;;;;;24.80;38.80;;;;;;1590369;73;1101;-57
2022/07/12 11:49:44;;;;;;;;;;;24.80;38.80;;;;;;1587671;73;774;-55
2022/07/12 11:51:45;;;;;;;;;;;24.80;38.80;;;;;;1546113;74;638;-56
2022/07/12 11:53:49;;;;;;;;;;;24.70;38.80;;;;;;1591989;73;755;-55
2022/07/12 11:55:52;;;;;;;;;;;24.80;38.80;;;;;;1564195;74;1934;-57
2022/07/12 11:57:55;;;;;;;;;;;24.80;38.80;;;;;;1611566;73;1119;-55
2022/07/12 11:59:57;;;;;;;;;;;24.80;38.80;;;;;;1589588;73;1886;-57
2022/07/12 12:02:07;;;;;;;;;;;24.80;38.80;;;;;;1589611;73;660;-56
2022/07/12 12:04:10;;;;;;;;;;;24.80;38.90;;;;;;1578487;73;748;-54
2022/07/12 12:06:12;;;;;;;;;;;24.80;38.80;;;;;;1592766;73;718;-56
2022/07/12 12:08:14;;;;;;;;;;;24.80;38.90;;;;;;1574007;73;1089;-57
2022/07/12 12:10:17;;;;;;;;;;;24.80;38.90;;;;;;1582897;73;884;-57
2022/07/12 12:12:19;;;;;;;;;;;24.80;38.80;;;;;;1606676;73;813;-57
2022/07/12 12:14:21;;;;;;;;;;;24.80;38.80;;;;;;1580322;73;1919;-56
2022/07/12 12:16:23;;;;;;;;;;;24.80;38.90;;;;;;1599144;73;1180;-56
2022/07/12 12:18:29;;;;;;;;;;;24.80;38.80;;;;;;1585234;73;760;-57
2022/07/12 12:20:31;;;;;;;;;;;24.80;38.80;;;;;;1589841;73;760;-55
2022/07/12 12:22:36;;;;;;;;;;;24.80;38.80;;;;;;1575974;73;663;-55
2022/07/12 12:24:38;;;;;;;;;;;24.70;38.90;;;;;;1587878;73;672;-57